Time;durP1;ratioP1;P1;durP2;ratioP2;P2;SDS_P1;SDS_P2;PMS_P1;PMS_P2;Temp;Humidity;BMP_temperature;BMP_pressure;BME280_temperature;BME280_humidity;BME280_pressure;Samples;Min_cycle;Max_cycle;Signal;HPM_P1;HPM_P2
2023/05/14 00:01:58;;;;;;;4.77;4.20;;;21.30;59.90;22.00;101014.00;;;;5029828;28;20214;-58
2023/05/14 00:04:23;;;;;;;4.47;4.07;;;21.30;60.70;21.90;101021.00;;;;5033326;28;20183;-58
2023/05/14 00:06:49;;;;;;;5.00;4.40;;;21.30;59.90;21.90;101015.00;;;;5031599;28;20621;-58
2023/05/14 00:09:15;;;;;;;4.50;4.20;;;21.30;59.90;21.90;101018.00;;;;5040110;28;20208;-58
2023/05/14 00:11:41;;;;;;;4.50;4.20;;;21.20;59.80;21.90;101015.00;;;;5044929;28;20264;-58
2023/05/14 00:14:07;;;;;;;4.33;4.03;;;21.20;59.80;21.90;101015.00;;;;5033797;28;20205;-58
2023/05/14 00:16:32;;;;;;;4.20;3.80;;;21.20;59.80;21.80;101014.00;;;;5032098;28;20266;-58
2023/05/14 00:18:58;;;;;;;4.07;3.77;;;21.10;59.80;21.80;101013.00;;;;5032236;28;20194;-59
2023/05/14 00:21:24;;;;;;;4.23;3.93;;;21.20;59.80;21.80;101009.00;;;;5030482;28;20206;-59
2023/05/14 00:23:49;;;;;;;4.30;4.00;;;21.20;59.80;21.80;101013.00;;;;5037830;28;20178;-59
2023/05/14 00:26:15;;;;;;;4.10;3.80;;;21.10;59.70;21.80;101012.00;;;;5038216;28;20191;-58
2023/05/14 00:28:41;;;;;;;4.30;4.00;;;21.10;59.80;21.80;101003.00;;;;5030881;28;20205;-58
2023/05/14 00:31:08;;;;;;;4.27;3.97;;;21.00;59.70;21.70;101011.00;;;;5030399;28;20221;-58
2023/05/14 00:33:33;;;;;;;4.20;3.80;;;21.10;59.80;21.70;101004.00;;;;5029066;28;20187;-58
2023/05/14 00:35:59;;;;;;;4.50;4.10;;;21.00;59.70;21.70;101002.00;;;;5030743;28;20714;-59
2023/05/14 00:38:27;;;;;;;4.23;3.93;;;21.00;59.70;21.70;100999.00;;;;5030254;28;20187;-59
2023/05/14 00:40:53;;;;;;;3.90;3.60;;;21.00;59.70;21.60;100999.00;;;;5030295;28;20213;-58
2023/05/14 00:43:19;;;;;;;4.13;3.80;;;21.00;59.80;21.60;100992.00;;;;5028917;28;20545;-58
2023/05/14 00:45:45;;;;;;;4.20;3.87;;;20.90;59.80;21.60;100991.00;;;;5030178;28;20186;-59
2023/05/14 00:48:10;;;;;;;3.90;3.63;;;20.90;59.80;21.60;100988.00;;;;5028496;28;20183;-59
2023/05/14 00:50:36;;;;;;;4.00;3.70;;;20.90;59.80;21.60;100991.00;;;;5029685;28;20285;-59
2023/05/14 00:53:03;;;;;;;4.30;3.90;;;20.90;59.70;21.50;100988.00;;;;5029202;28;20216;-59
2023/05/14 00:55:29;;;;;;;3.97;3.67;;;20.90;59.70;21.50;100990.00;;;;5029409;28;20196;-59
2023/05/14 00:57:54;;;;;;;4.00;3.70;;;20.90;59.80;21.50;100968.00;;;;5029038;28;20179;-59
2023/05/14 01:00:20;;;;;;;4.20;3.80;;;20.90;59.70;21.50;100985.00;;;;5028332;28;20240;-58
2023/05/14 01:02:46;;;;;;;4.40;4.10;;;20.80;59.50;21.50;100985.00;;;;5028255;28;20183;-58
2023/05/14 01:05:11;;;;;;;4.50;4.10;;;20.80;59.70;21.40;100987.00;;;;5029484;28;20244;-58
2023/05/14 01:08:16;;;;;;;4.40;4.00;;;20.80;59.70;21.40;100984.00;;;;5029235;28;20187;-59
2023/05/14 01:10:51;;;;;;;4.33;4.03;;;20.70;59.60;21.40;100977.00;;;;5028089;28;20208;-57
2023/05/14 01:14:03;;;;;;;4.23;3.87;;;20.70;59.50;21.40;100979.00;;;;5028101;28;20189;-57
2023/05/14 01:16:29;;;;;;;4.93;3.70;;;20.70;59.40;21.30;100969.00;;;;5012702;28;20202;-58
2023/05/14 01:18:55;;;;;;;4.40;4.00;;;20.70;59.50;21.30;100972.00;;;;5028246;28;20190;-58
2023/05/14 01:21:37;;;;;;;3.93;3.63;;;20.70;59.40;21.30;100966.00;;;;5028177;28;20280;-58
2023/05/14 01:24:03;;;;;;;4.03;3.60;;;20.60;59.40;21.20;100981.00;;;;5029533;28;20219;-58
2023/05/14 01:26:30;;;;;;;3.70;3.40;;;20.70;59.40;21.20;100971.00;;;;5029564;28;20258;-59
2023/05/14 01:29:14;;;;;;;4.17;3.77;;;20.60;59.40;21.20;100971.00;;;;5027765;28;20252;-58
2023/05/14 01:31:42;;;;;;;4.13;3.83;;;20.60;59.30;21.20;100969.00;;;;5009024;28;20202;-58
2023/05/14 01:34:08;;;;;;;4.20;3.40;;;20.60;59.40;21.20;100976.00;;;;5027833;28;20232;-57
2023/05/14 01:36:33;;;;;;;4.03;3.57;;;20.60;59.40;21.20;100968.00;;;;5027585;28;20171;-57
2023/05/14 01:39:00;;;;;;;4.00;3.70;;;20.50;59.30;21.10;100957.00;;;;5027445;28;20178;-59
2023/05/14 01:41:26;;;;;;;3.90;3.60;;;20.50;59.30;21.10;100957.00;;;;5027476;28;20202;-58
2023/05/14 01:43:51;;;;;;;3.97;3.60;;;20.50;59.30;21.10;100961.00;;;;5027139;28;20279;-59
2023/05/14 01:46:22;;;;;;;3.77;3.47;;;20.50;59.30;21.10;100965.00;;;;5027658;28;20175;-58
2023/05/14 01:48:48;;;;;;;4.00;3.70;;;20.50;59.30;21.10;100974.00;;;;5028729;28;20279;-58
2023/05/14 01:51:14;;;;;;;3.90;3.60;;;20.50;59.20;21.10;100963.00;;;;5028810;28;20221;-59
2023/05/14 01:53:40;;;;;;;4.00;3.70;;;20.50;59.20;21.10;100955.00;;;;5028853;28;20659;-58
2023/05/14 01:56:06;;;;;;;4.30;3.70;;;20.50;59.20;21.00;100958.00;;;;5028515;28;20553;-58
2023/05/14 01:58:32;;;;;;;3.97;3.63;;;20.50;59.40;21.00;100957.00;;;;5028564;28;20240;-58
2023/05/14 02:00:57;;;;;;;3.70;3.40;;;20.50;59.20;21.00;100953.00;;;;5019879;28;20222;-58
2023/05/14 02:03:23;;;;;;;4.10;3.70;;;20.40;59.10;21.00;100958.00;;;;5027100;28;20206;-57
2023/05/14 02:05:49;;;;;;;3.80;3.50;;;20.40;59.10;21.00;100957.00;;;;5028515;28;20194;-58
2023/05/14 02:08:15;;;;;;;3.67;3.37;;;20.40;59.10;20.90;100950.00;;;;5028374;28;20182;-58
2023/05/14 02:10:41;;;;;;;4.30;3.90;;;20.40;59.20;20.90;100947.00;;;;5030872;28;20201;-58
2023/05/14 02:13:08;;;;;;;3.97;3.60;;;20.40;59.10;20.90;100944.00;;;;5039915;28;20183;-58
2023/05/14 02:15:34;;;;;;;3.93;3.63;;;20.40;59.10;20.90;100953.00;;;;5031841;28;20213;-58
2023/05/14 02:17:59;;;;;;;3.90;3.60;;;20.30;59.10;20.90;100934.00;;;;5030008;28;20308;-57
2023/05/14 02:20:26;;;;;;;3.60;3.37;;;20.30;59.10;20.90;100941.00;;;;5029427;28;20218;-58
2023/05/14 02:22:51;;;;;;;4.00;3.70;;;20.30;59.10;20.90;100940.00;;;;5029984;28;20289;-58
2023/05/14 02:25:17;;;;;;;3.83;3.53;;;20.30;59.10;20.80;100934.00;;;;5034715;28;20171;-58
2023/05/14 02:27:43;;;;;;;3.67;3.47;;;20.20;59.00;20.80;100934.00;;;;5030227;28;20236;-57
2023/05/14 02:30:10;;;;;;;4.00;3.70;;;20.20;59.00;20.80;100935.00;;;;5031484;28;20521;-57
2023/05/14 02:32:35;;;;;;;3.73;3.43;;;20.20;59.00;20.80;100938.00;;;;5030290;28;20190;-58
2023/05/14 02:35:01;;;;;;;4.30;3.90;;;20.20;59.00;20.70;100933.00;;;;5028283;28;20555;-58
2023/05/14 02:37:27;;;;;;;3.87;3.57;;;20.20;59.00;20.70;100951.00;;;;5028056;28;20243;-58
2023/05/14 02:39:53;;;;;;;4.20;3.80;;;20.20;59.00;20.70;100937.00;;;;5028033;28;20271;-59
2023/05/14 02:42:18;;;;;;;4.23;3.93;;;20.10;58.90;20.70;100940.00;;;;5028225;28;20183;-58
2023/05/14 02:44:44;;;;;;;4.17;3.80;;;20.10;58.90;20.70;100942.00;;;;5028346;28;20185;-58
2023/05/14 02:47:10;;;;;;;3.70;3.40;;;20.10;58.90;20.70;100939.00;;;;5027967;28;20190;-58
2023/05/14 02:49:36;;;;;;;3.80;3.50;;;20.10;58.90;20.60;100941.00;;;;5028149;28;20186;-59
2023/05/14 02:52:02;;;;;;;4.20;3.67;;;20.10;58.90;20.60;100952.00;;;;5028360;28;20188;-60
2023/05/14 02:54:28;;;;;;;4.20;3.90;;;20.10;58.80;20.60;100944.00;;;;5028193;28;20200;-58
2023/05/14 02:56:53;;;;;;;4.33;3.93;;;20.10;58.90;20.60;100947.00;;;;5026522;28;20771;-59
2023/05/14 02:59:20;;;;;;;4.20;3.60;;;20.10;58.90;20.60;100949.00;;;;5027979;28;20207;-58
2023/05/14 03:01:45;;;;;;;3.80;3.50;;;20.00;58.80;20.50;100952.00;;;;5027926;28;20260;-58
2023/05/14 03:04:11;;;;;;;3.80;3.50;;;20.00;58.80;20.50;100953.00;;;;5028091;28;20189;-59
2023/05/14 03:06:37;;;;;;;3.90;3.50;;;20.00;58.70;20.50;100948.00;;;;5027903;28;20179;-59
2023/05/14 03:09:03;;;;;;;4.10;3.70;;;20.00;58.70;20.50;100947.00;;;;5027540;28;20642;-58
2023/05/14 03:11:28;;;;;;;4.07;3.50;;;20.00;58.70;20.50;100947.00;;;;5027872;28;20196;-58
2023/05/14 03:13:54;;;;;;;4.03;3.63;;;19.90;58.60;20.50;100943.00;;;;5029666;28;20803;-59
2023/05/14 03:16:20;;;;;;;3.80;3.50;;;19.90;58.60;20.40;100945.00;;;;5031602;28;20237;-59
2023/05/14 03:18:46;;;;;;;3.83;3.40;;;19.90;58.60;20.40;100938.00;;;;5031343;28;20182;-59
2023/05/14 03:21:11;;;;;;;3.90;3.50;;;19.90;58.60;20.20;100952.00;;;;5031448;28;20218;-58
2023/05/14 03:23:37;;;;;;;3.83;3.43;;;19.90;58.50;20.40;100939.00;;;;5031344;28;20179;-58
2023/05/14 03:26:03;;;;;;;4.30;3.80;;;19.80;58.40;20.40;100958.00;;;;5031407;28;20853;-58
2023/05/14 03:28:29;;;;;;;6.40;3.90;;;19.90;58.40;20.40;100941.00;;;;5030032;28;20262;-58
2023/05/14 03:30:55;;;;;;;8.23;3.93;;;19.90;58.70;20.40;100951.00;;;;5022071;28;20246;-58
2023/05/14 03:33:21;;;;;;;4.13;3.60;;;19.90;58.50;20.40;100948.00;;;;5014082;28;20637;-58
2023/05/14 03:35:47;;;;;;;7.27;3.53;;;19.90;58.50;20.40;100947.00;;;;5030170;28;20175;-58
2023/05/14 03:38:13;;;;;;;6.80;4.00;;;19.90;58.90;20.40;100948.00;;;;5030950;28;20183;-58
2023/05/14 03:40:38;;;;;;;7.53;3.70;;;19.90;58.70;20.30;100945.00;;;;5031011;28;20568;-58
2023/05/14 03:43:04;;;;;;;4.87;3.87;;;19.90;58.60;20.30;100945.00;;;;5029835;28;20174;-57
2023/05/14 03:45:31;;;;;;;7.43;3.90;;;19.90;58.60;20.30;100879.00;;;;5031144;28;20671;-57
2023/05/14 03:47:56;;;;;;;8.20;4.00;;;19.90;58.60;20.30;100943.00;;;;5023589;28;20188;-58
2023/05/14 03:50:24;;;;;;;5.57;3.53;;;19.90;58.70;20.30;100945.00;;;;5012841;28;20202;-57
2023/05/14 03:52:51;;;;;;;4.37;3.70;;;19.90;58.70;20.30;100947.00;;;;5028917;28;20545;-58
2023/05/14 03:55:18;;;;;;;7.50;4.10;;;19.90;58.80;20.30;100940.00;;;;5028542;28;20645;-58
2023/05/14 03:57:44;;;;;;;6.97;3.90;;;19.80;58.70;20.30;100935.00;;;;5011591;28;20178;-59
2023/05/14 04:00:11;;;;;;;6.93;3.70;;;19.80;58.70;20.20;100935.00;;;;5021568;28;20859;-58
2023/05/14 04:02:36;;;;;;;7.77;3.83;;;19.80;58.70;20.20;100939.00;;;;5029326;28;20706;-58
2023/05/14 04:05:03;;;;;;;4.23;3.70;;;19.80;58.70;20.20;100933.00;;;;5030391;28;20211;-58
2023/05/14 04:07:28;;;;;;;5.57;3.43;;;19.80;58.70;20.20;100936.00;;;;5029836;28;20681;-57
2023/05/14 04:09:54;;;;;;;5.40;3.80;;;19.80;58.70;20.10;100943.00;;;;5030298;28;20200;-58
2023/05/14 04:12:20;;;;;;;7.43;3.50;;;19.80;58.70;20.20;100934.00;;;;5030131;28;20187;-58
2023/05/14 04:14:46;;;;;;;7.40;3.97;;;19.80;58.70;20.20;100950.00;;;;5042762;28;20178;-58
2023/05/14 04:17:11;;;;;;;7.07;3.80;;;19.80;58.90;20.20;100940.00;;;;5034427;28;20190;-58
2023/05/14 04:19:38;;;;;;;6.70;3.60;;;19.80;59.10;20.20;100948.00;;;;5031246;28;20218;-59
2023/05/14 04:22:04;;;;;;;3.90;3.20;;;19.80;59.10;20.10;100940.00;;;;5031681;28;20182;-59
2023/05/14 04:24:30;;;;;;;4.00;3.60;;;19.80;59.10;20.10;100886.00;;;;5031687;28;20183;-58
2023/05/14 04:26:55;;;;;;;4.03;3.40;;;19.70;58.90;20.10;100942.00;;;;5033626;28;20193;-58
2023/05/14 04:29:21;;;;;;;4.80;3.50;;;19.70;58.90;20.10;100935.00;;;;5042916;28;20191;-59
2023/05/14 04:31:48;;;;;;;6.07;3.57;;;19.70;59.00;20.10;100934.00;;;;5030269;28;20209;-58
2023/05/14 04:34:14;;;;;;;5.07;3.70;;;19.60;59.10;20.10;100938.00;;;;5030175;28;20202;-58
2023/05/14 04:36:40;;;;;;;5.00;3.90;;;19.60;59.20;20.00;100945.00;;;;5029663;28;20317;-58
2023/05/14 04:39:06;;;;;;;4.50;3.70;;;19.60;59.40;20.10;100941.00;;;;5028298;28;20213;-59
2023/05/14 04:41:31;;;;;;;4.17;3.80;;;19.60;59.50;20.10;100873.00;;;;5029400;28;20294;-57
2023/05/14 04:43:59;;;;;;;4.00;3.70;;;19.60;59.60;20.00;100936.00;;;;5028894;28;20226;-61
2023/05/14 04:46:25;;;;;;;7.03;3.80;;;19.60;59.40;20.00;100932.00;;;;5028894;28;20662;-58
2023/05/14 04:48:51;;;;;;;4.10;3.70;;;19.60;59.40;20.00;100935.00;;;;5034163;28;20685;-58
2023/05/14 04:51:16;;;;;;;5.00;3.70;;;19.60;59.40;20.00;100936.00;;;;5042031;28;20199;-57
2023/05/14 04:53:42;;;;;;;4.43;4.03;;;19.60;59.40;20.00;100933.00;;;;5031232;28;20182;-57
2023/05/14 04:56:08;;;;;;;4.07;3.60;;;19.60;59.40;19.90;100930.00;;;;5030485;28;20190;-57
2023/05/14 04:58:33;;;;;;;4.73;3.90;;;19.50;59.30;19.90;100931.00;;;;5030520;28;20183;-58
2023/05/14 05:01:00;;;;;;;4.23;3.57;;;19.60;59.40;19.90;100943.00;;;;5031226;28;20202;-58
2023/05/14 05:03:26;;;;;;;5.20;3.70;;;19.60;59.40;19.90;100935.00;;;;5031159;28;20634;-58
2023/05/14 05:05:51;;;;;;;3.97;3.47;;;19.60;59.40;19.90;100937.00;;;;5030988;28;20251;-58
2023/05/14 05:08:17;;;;;;;4.27;3.40;;;19.60;59.40;19.90;100933.00;;;;5029771;28;20175;-58
2023/05/14 05:10:43;;;;;;;4.07;3.70;;;19.50;59.30;19.90;100932.00;;;;5030072;28;20645;-58
2023/05/14 05:13:09;;;;;;;4.03;3.60;;;19.50;60.00;19.80;100932.00;;;;5030108;28;20189;-58
2023/05/14 05:15:34;;;;;;;4.20;3.80;;;19.50;59.40;19.80;100926.00;;;;5030229;28;20183;-58
2023/05/14 05:18:00;;;;;;;3.90;3.50;;;19.50;59.40;19.80;100932.00;;;;5029333;28;20245;-58
2023/05/14 05:20:27;;;;;;;3.80;3.50;;;19.50;59.40;19.80;100927.00;;;;5029903;28;20238;-58
2023/05/14 05:22:52;;;;;;;4.10;3.67;;;19.50;59.40;19.80;100929.00;;;;5021055;28;20206;-58
2023/05/14 05:25:18;;;;;;;4.37;3.60;;;19.50;59.50;19.80;100930.00;;;;5023491;28;20204;-57
2023/05/14 05:27:44;;;;;;;3.50;3.23;;;19.50;59.50;19.80;100930.00;;;;5029084;28;20191;-58
2023/05/14 05:30:10;;;;;;;3.70;3.40;;;19.40;59.40;19.80;100930.00;;;;5029519;28;20190;-57
2023/05/14 05:32:36;;;;;;;3.87;3.57;;;19.40;59.40;19.80;100932.00;;;;5008471;28;20682;-58
2023/05/14 05:35:02;;;;;;;3.63;3.37;;;19.40;59.40;19.80;100935.00;;;;5028070;28;20175;-58
2023/05/14 05:37:29;;;;;;;3.63;3.33;;;19.40;59.50;19.80;100934.00;;;;5026001;28;20324;-57
2023/05/14 05:39:55;;;;;;;5.63;3.30;;;19.40;59.50;19.80;100945.00;;;;5027989;28;20207;-58
2023/05/14 05:42:21;;;;;;;3.60;3.30;;;19.40;59.60;19.80;100943.00;;;;5027705;28;20182;-58
2023/05/14 05:44:47;;;;;;;3.60;3.30;;;19.40;59.60;19.70;100931.00;;;;5029237;28;20665;-58
2023/05/14 05:47:12;;;;;;;3.80;3.40;;;19.40;59.60;19.80;100939.00;;;;5028420;28;20210;-58
2023/05/14 05:49:38;;;;;;;3.73;3.43;;;19.40;59.60;19.80;100940.00;;;;5027559;28;20185;-57
2023/05/14 05:52:04;;;;;;;3.90;3.60;;;19.40;59.60;19.80;100937.00;;;;5028586;28;20198;-57
2023/05/14 05:54:31;;;;;;;4.70;3.40;;;19.40;59.60;19.70;100947.00;;;;5027508;28;20184;-57
2023/05/14 05:56:57;;;;;;;3.97;3.20;;;19.30;59.60;19.70;100948.00;;;;5027307;28;20660;-57
2023/05/14 05:59:23;;;;;;;3.57;3.37;;;19.30;59.70;19.70;100949.00;;;;5027505;28;20211;-57
2023/05/14 06:01:49;;;;;;;4.10;3.40;;;19.30;59.60;19.70;100953.00;;;;5028229;28;20747;-58
2023/05/14 06:04:15;;;;;;;5.47;3.50;;;19.30;59.70;19.70;100952.00;;;;5027179;28;20170;-59
2023/05/14 06:06:41;;;;;;;4.03;3.60;;;19.30;59.70;19.70;100951.00;;;;5027232;28;20558;-59
2023/05/14 06:09:07;;;;;;;3.80;3.50;;;19.30;59.70;19.70;100955.00;;;;5027934;28;20618;-58
2023/05/14 06:11:34;;;;;;;3.50;3.30;;;19.30;59.70;19.70;100937.00;;;;5027744;28;20619;-58
2023/05/14 06:13:59;;;;;;;3.70;3.40;;;19.30;59.70;19.70;100967.00;;;;5037324;28;20187;-59
2023/05/14 06:16:25;;;;;;;3.90;3.50;;;19.30;59.80;19.70;100954.00;;;;5048611;28;20214;-58
2023/05/14 06:18:51;;;;;;;3.53;3.33;;;19.30;59.80;19.70;100953.00;;;;5027353;28;20179;-58
2023/05/14 06:21:17;;;;;;;4.17;3.50;;;19.30;59.90;19.70;100939.00;;;;5029439;28;20214;-59
2023/05/14 06:23:43;;;;;;;3.67;3.37;;;19.20;59.80;19.70;100955.00;;;;5026998;28;20232;-58
2023/05/14 06:26:09;;;;;;;3.47;3.27;;;19.20;59.90;19.70;100947.00;;;;5030438;28;20273;-58
2023/05/14 06:28:35;;;;;;;4.10;3.33;;;19.20;59.90;19.70;100948.00;;;;5037066;28;20206;-58
2023/05/14 06:31:01;;;;;;;4.40;3.40;;;19.20;60.00;19.70;100945.00;;;;5042039;28;20199;-58
2023/05/14 06:33:30;;;;;;;4.07;3.30;;;19.20;60.00;19.70;100949.00;;;;5028062;28;20183;-59
2023/05/14 06:36:04;;;;;;;3.63;3.37;;;19.20;60.40;19.70;100926.00;;;;5028941;28;20183;-59
2023/05/14 06:38:30;;;;;;;3.93;3.63;;;19.20;60.70;19.70;100944.00;;;;5010415;28;20189;-50
2023/05/14 06:40:55;;;;;;;3.87;3.43;;;19.20;60.90;19.70;100949.00;;;;5023409;28;20211;-50
2023/05/14 06:43:21;;;;;;;3.50;3.20;;;19.20;60.90;19.70;100953.00;;;;5022195;28;20241;-51
2023/05/14 06:45:50;;;;;;;4.10;3.70;;;19.10;60.70;19.60;100949.00;;;;5028193;28;20626;-53
2023/05/14 06:48:17;;;;;;;5.53;3.67;;;19.20;60.90;19.60;100953.00;;;;5030146;28;20182;-50
2023/05/14 06:50:46;;;;;;;4.87;3.63;;;19.20;61.30;19.60;100952.00;;;;5032697;28;20284;-50
2023/05/14 06:53:12;;;;;;;3.60;3.30;;;19.20;61.30;19.60;100951.00;;;;5031695;28;20278;-50
2023/05/14 06:55:38;;;;;;;4.20;3.80;;;19.20;61.30;19.60;100933.00;;;;5032696;28;20274;-50
2023/05/14 06:58:07;;;;;;;4.60;4.20;;;19.10;61.20;19.60;100936.00;;;;5032971;28;20233;-50
2023/05/14 07:00:33;;;;;;;4.97;4.47;;;19.00;61.10;19.50;100945.00;;;;5032044;28;20310;-49
2023/05/14 07:02:59;;;;;;;5.17;4.40;;;19.00;61.10;19.50;100938.00;;;;5032923;28;20601;-50
2023/05/14 07:05:25;;;;;;;4.70;4.10;;;19.00;61.10;19.50;100950.00;;;;5032625;28;20179;-49
2023/05/14 07:07:50;;;;;;;4.47;4.00;;;19.00;61.10;19.50;100945.00;;;;5032355;28;20230;-50
2023/05/14 07:10:16;;;;;;;4.70;4.20;;;19.00;61.10;19.50;100938.00;;;;5026858;28;20207;-50
2023/05/14 07:12:42;;;;;;;4.80;4.40;;;18.90;60.90;19.40;100938.00;;;;5035401;28;20215;-50
2023/05/14 07:15:08;;;;;;;4.20;3.90;;;18.90;60.80;19.40;100942.00;;;;5032895;28;20193;-49
2023/05/14 07:17:34;;;;;;;4.77;4.27;;;18.90;60.90;19.40;100941.00;;;;5032342;28;20183;-49
2023/05/14 07:20:00;;;;;;;5.20;4.60;;;19.00;60.90;19.40;100935.00;;;;5032761;28;20957;-49
2023/05/14 07:22:25;;;;;;;5.07;4.67;;;18.90;60.70;19.30;100941.00;;;;5032613;28;20591;-49
2023/05/14 07:24:51;;;;;;;4.87;4.43;;;18.80;60.70;19.30;100948.00;;;;5032171;28;20879;-49
2023/05/14 07:27:17;;;;;;;4.80;4.30;;;18.80;60.80;19.30;100938.00;;;;5032441;28;20191;-50
2023/05/14 07:29:43;;;;;;;4.70;4.30;;;18.90;61.00;19.40;100934.00;;;;5032347;28;20653;-50
2023/05/14 07:32:08;;;;;;;4.90;4.40;;;18.90;61.00;19.40;100933.00;;;;5031444;28;20171;-50
2023/05/14 07:34:34;;;;;;;4.70;4.30;;;18.90;61.00;19.40;100929.00;;;;5031399;28;20265;-49
2023/05/14 07:37:00;;;;;;;4.77;4.30;;;18.90;61.00;19.40;100926.00;;;;5031697;28;20187;-50
2023/05/14 07:39:26;;;;;;;4.53;4.23;;;18.90;60.90;19.40;100924.00;;;;5032321;28;20225;-50
2023/05/14 07:41:53;;;;;;;4.50;4.20;;;18.90;60.90;19.40;100925.00;;;;5031743;28;20764;-50
2023/05/14 07:44:20;;;;;;;4.83;4.30;;;18.90;61.00;19.40;100929.00;;;;5031404;28;20211;-49
2023/05/14 07:46:46;;;;;;;4.63;4.30;;;18.90;61.00;19.40;100923.00;;;;5029142;28;20262;-49
2023/05/14 07:49:12;;;;;;;4.60;4.20;;;18.90;61.00;19.40;100924.00;;;;5025574;28;20237;-48
2023/05/14 07:51:37;;;;;;;4.77;4.33;;;18.90;61.10;19.50;100914.00;;;;5032032;28;20202;-48
2023/05/14 07:54:03;;;;;;;5.67;4.73;;;18.90;61.10;19.40;100916.00;;;;5031124;28;20706;-49
2023/05/14 07:56:29;;;;;;;4.40;4.10;;;18.90;61.10;19.50;100916.00;;;;5031577;28;20183;-49
2023/05/14 07:58:55;;;;;;;4.87;4.57;;;18.90;61.30;19.40;100914.00;;;;5030954;28;20205;-50
2023/05/14 08:01:21;;;;;;;4.63;4.23;;;18.90;61.10;19.40;100917.00;;;;5031835;28;20217;-49
2023/05/14 08:03:46;;;;;;;4.90;4.40;;;18.90;61.00;19.40;100912.00;;;;5031215;28;20206;-49
2023/05/14 08:06:12;;;;;;;4.80;4.40;;;18.90;61.00;19.40;100925.00;;;;5030686;28;20537;-50
2023/05/14 08:08:38;;;;;;;4.57;4.17;;;18.80;60.90;19.40;100920.00;;;;5031526;28;20187;-49
2023/05/14 08:11:04;;;;;;;5.10;4.70;;;18.90;61.00;19.40;100920.00;;;;5031538;28;20199;-50
2023/05/14 08:13:30;;;;;;;4.90;4.40;;;18.80;60.90;19.40;100924.00;;;;5031244;28;20969;-50
2023/05/14 08:15:55;;;;;;;5.57;4.80;;;18.80;60.90;19.40;100922.00;;;;5031162;28;20259;-56
2023/05/14 08:18:21;;;;;;;5.70;4.57;;;18.80;61.40;19.40;100924.00;;;;5039232;28;20187;-56
2023/05/14 08:20:47;;;;;;;5.23;4.80;;;18.80;61.60;19.40;100924.00;;;;5043518;28;20210;-57
2023/05/14 08:23:13;;;;;;;5.73;4.73;;;18.80;61.90;19.40;100918.00;;;;5032963;28;20301;-56
2023/05/14 08:25:38;;;;;;;6.77;4.70;;;18.90;62.00;19.40;100922.00;;;;5032887;28;20560;-56
2023/05/14 08:28:04;;;;;;;5.83;4.63;;;18.90;62.10;19.50;100898.00;;;;5032929;28;20241;-57
2023/05/14 08:30:30;;;;;;;7.67;6.10;;;18.90;62.20;19.40;100909.00;;;;5033586;28;20462;-58
2023/05/14 08:32:57;;;;;;;6.10;5.60;;;18.80;62.50;19.40;100918.00;;;;5032716;28;20744;-56
2023/05/14 08:35:23;;;;;;;6.43;5.93;;;18.80;61.90;19.40;100924.00;;;;5040687;28;20190;-57
2023/05/14 08:37:49;;;;;;;6.63;5.90;;;18.80;62.00;19.40;100915.00;;;;5028806;28;20187;-56
2023/05/14 08:40:14;;;;;;;6.47;5.83;;;18.80;62.20;19.50;100916.00;;;;5027260;28;20214;-59
2023/05/14 08:42:40;;;;;;;5.97;5.47;;;18.90;62.30;19.50;100906.00;;;;5022142;28;20186;-57
2023/05/14 08:45:19;;;;;;;7.63;6.30;;;18.90;62.40;19.50;100904.00;;;;5030419;28;20564;-56
2023/05/14 08:47:49;;;;;;;6.80;6.23;;;18.90;62.80;19.50;100901.00;;;;5029829;28;20186;-57
2023/05/14 08:50:15;;;;;;;8.07;6.27;;;18.90;63.40;19.50;100906.00;;;;5030805;28;20286;-59
2023/05/14 08:52:40;;;;;;;6.83;6.13;;;18.90;63.10;19.50;100899.00;;;;5029205;28;20385;-57
2023/05/14 08:55:06;;;;;;;6.67;6.10;;;18.90;62.90;19.50;100895.00;;;;5029135;28;20183;-57
2023/05/14 08:57:32;;;;;;;7.30;6.30;;;18.90;62.80;19.50;100894.00;;;;5012491;28;20183;-57
2023/05/14 08:59:58;;;;;;;6.47;5.93;;;18.90;62.50;19.50;100883.00;;;;5022576;28;20365;-58
2023/05/14 09:02:27;;;;;;;6.17;5.43;;;18.90;62.80;19.60;100896.00;;;;5030333;28;20178;-57
2023/05/14 09:05:00;;;;;;;6.20;5.60;;;18.90;62.80;19.50;100898.00;;;;5034188;28;20704;-57
2023/05/14 09:07:25;;;;;;;6.97;5.23;;;18.90;63.30;19.60;100905.00;;;;5033974;28;20183;-58
2023/05/14 09:09:51;;;;;;;5.60;5.10;;;18.90;63.70;19.60;100893.00;;;;5032474;28;20236;-57
2023/05/14 09:12:17;;;;;;;6.33;5.73;;;18.90;63.50;19.60;100890.00;;;;5030339;28;20552;-58
2023/05/14 09:14:44;;;;;;;7.23;5.43;;;18.90;63.30;19.60;100897.00;;;;5030904;28;20193;-58
2023/05/14 09:17:11;;;;;;;5.77;5.03;;;18.90;63.30;19.60;100902.00;;;;5030280;28;20269;-58
2023/05/14 09:19:39;;;;;;;5.40;4.90;;;18.90;63.50;19.60;100892.00;;;;5030558;28;20211;-58
2023/05/14 09:22:08;;;;;;;5.40;4.87;;;18.90;63.30;19.60;100895.00;;;;5029536;28;20552;-58
2023/05/14 09:24:33;;;;;;;5.17;4.77;;;18.90;63.60;19.60;100894.00;;;;5029839;28;20182;-57
2023/05/14 09:27:00;;;;;;;5.13;4.73;;;19.00;63.70;19.60;100903.00;;;;5030319;28;20175;-58
2023/05/14 09:29:27;;;;;;;5.00;4.60;;;19.00;63.70;19.60;100884.00;;;;5030629;28;20257;-57
2023/05/14 09:31:54;;;;;;;5.23;4.80;;;18.90;63.60;19.70;100890.00;;;;5029249;28;20233;-58
2023/05/14 09:34:23;;;;;;;4.73;4.23;;;19.00;64.30;19.70;100877.00;;;;5030578;28;20229;-58
2023/05/14 09:36:49;;;;;;;5.07;4.60;;;19.00;64.60;19.70;100878.00;;;;5030937;28;20175;-59
2023/05/14 09:39:16;;;;;;;4.77;4.37;;;19.00;64.50;19.70;100880.00;;;;5032858;28;20247;-58
2023/05/14 09:41:42;;;;;;;6.57;4.87;;;19.00;64.40;19.70;100877.00;;;;5025219;28;20677;-58
2023/05/14 09:44:08;;;;;;;5.27;4.87;;;19.00;64.90;19.70;100880.00;;;;5030428;28;20179;-58
2023/05/14 09:46:33;;;;;;;6.10;5.60;;;19.00;64.80;19.70;100871.00;;;;5030347;28;20187;-58
2023/05/14 09:48:59;;;;;;;5.27;4.87;;;19.00;64.50;19.80;100866.00;;;;5028647;28;20187;-57
2023/05/14 09:51:25;;;;;;;5.73;5.33;;;19.10;65.10;19.80;100862.00;;;;5028933;28;20292;-57
2023/05/14 09:53:52;;;;;;;5.50;5.10;;;19.10;65.00;19.80;100865.00;;;;5030517;28;20655;-57
2023/05/14 09:56:18;;;;;;;5.13;4.73;;;19.10;65.30;19.80;100855.00;;;;5030256;28;20179;-57
2023/05/14 09:58:44;;;;;;;5.20;4.80;;;19.10;65.70;19.80;100854.00;;;;5022069;28;20211;-57
2023/05/14 10:01:10;;;;;;;5.57;5.17;;;19.10;65.80;19.80;100849.00;;;;5030185;28;20235;-57
2023/05/14 10:03:36;;;;;;;6.07;5.50;;;19.20;65.80;19.80;100846.00;;;;5028670;28;20699;-58
2023/05/14 10:06:04;;;;;;;5.80;5.30;;;19.10;65.40;19.90;100855.00;;;;5028678;28;20178;-57
2023/05/14 10:08:34;;;;;;;5.87;5.17;;;19.10;65.70;19.80;100854.00;;;;5028395;28;20225;-58
2023/05/14 10:11:02;;;;;;;6.83;6.23;;;19.20;65.80;19.90;100822.00;;;;5029724;28;20249;-58
2023/05/14 10:13:37;;;;;;;6.20;5.70;;;19.20;65.20;19.90;100845.00;;;;5029296;28;20182;-58
2023/05/14 10:16:40;;;;;;;5.90;5.40;;;19.10;65.40;19.90;100843.00;;;;5029040;28;20248;-58
2023/05/14 10:19:09;;;;;;;5.50;5.10;;;19.20;65.80;19.90;100830.00;;;;4995926;28;20228;-57
2023/05/14 10:21:36;;;;;;;5.27;4.87;;;19.20;65.80;19.90;100831.00;;;;5021389;28;20249;-58
2023/05/14 10:24:03;;;;;;;5.17;4.70;;;19.20;66.30;20.00;100824.00;;;;5043637;28;20199;-56
2023/05/14 10:26:31;;;;;;;5.40;5.00;;;19.20;66.30;20.00;100832.00;;;;5022949;28;20186;-57
2023/05/14 10:28:57;;;;;;;5.37;4.90;;;19.20;66.30;19.90;100825.00;;;;5013162;28;20552;-57
2023/05/14 10:31:45;;;;;;;5.97;5.53;;;19.30;66.30;20.00;100821.00;;;;5029528;28;20232;-55
2023/05/14 10:34:36;;;;;;;7.87;7.17;;;19.30;65.90;20.00;100819.00;;;;5031052;28;20190;-57
2023/05/14 10:37:10;;;;;;;8.03;7.43;;;19.30;64.90;20.00;100812.00;;;;5031263;28;20183;-58
2023/05/14 10:39:49;;;;;;;7.87;7.27;;;19.30;64.30;20.10;100812.00;;;;5047663;28;20209;-56
2023/05/14 10:42:32;;;;;;;8.90;8.17;;;19.30;63.90;20.10;100805.00;;;;5037254;28;20202;-59
2023/05/14 10:45:13;;;;;;;8.93;8.13;;;19.40;62.30;20.10;100796.00;;;;5002413;28;20237;-56
2023/05/14 10:47:41;;;;;;;8.10;7.20;;;19.40;61.50;20.10;100792.00;;;;5022397;28;20303;-56